Time;durP1;ratioP1;P1;durP2;ratioP2;P2;SDS_P1;SDS_P2;PMS_P1;PMS_P2;Temp;Humidity;BMP_temperature;BMP_pressure;BME280_temperature;BME280_humidity;BME280_pressure;Samples;Min_cycle;Max_cycle;Signal;HPM_P1;HPM_P2
2022/08/29 00:02:02;;;;;;;;;1.33;1.33;;;;;;;;4980438;28;48004;-73
2022/08/29 00:04:27;;;;;;;;;2.00;2.00;;;;;;;;4983586;27;45324;-73
2022/08/29 00:06:53;;;;;;;;;0.67;0.67;;;;;;;;4981694;27;45765;-73
2022/08/29 00:09:18;;;;;;;;;3.00;0.67;;;;;;;;4985686;27;45267;-72
2022/08/29 00:11:43;;;;;;;;;3.00;1.00;;;;;;;;4982140;28;45476;-73
2022/08/29 00:14:08;;;;;;;;;2.00;2.00;;;;;;;;4987204;28;45298;-72
2022/08/29 00:16:34;;;;;;;;;1.00;1.00;;;;;;;;4987560;27;45473;-73
2022/08/29 00:18:59;;;;;;;;;3.00;1.33;;;;;;;;4988164;28;45303;-73
2022/08/29 00:21:25;;;;;;;;;1.67;1.33;;;;;;;;4989782;27;45488;-72
2022/08/29 00:23:50;;;;;;;;;1.67;1.67;;;;;;;;4982692;27;46186;-72
2022/08/29 00:26:15;;;;;;;;;2.67;0.67;;;;;;;;4992282;27;45283;-73
2022/08/29 00:28:40;;;;;;;;;3.33;1.67;;;;;;;;4991019;27;45427;-73
2022/08/29 00:31:06;;;;;;;;;2.00;2.00;;;;;;;;4986954;27;45370;-73
2022/08/29 00:33:31;;;;;;;;;1.00;1.00;;;;;;;;4990548;28;46321;-73
2022/08/29 00:35:56;;;;;;;;;0.67;0.67;;;;;;;;4986697;27;45718;-72
2022/08/29 00:38:21;;;;;;;;;2.67;1.33;;;;;;;;4985893;27;45294;-73
2022/08/29 00:40:48;;;;;;;;;1.33;1.33;;;;;;;;4990562;28;45540;-73
2022/08/29 00:43:15;;;;;;;;;0.67;0.67;;;;;;;;4988084;27;45324;-73
2022/08/29 00:45:53;;;;;;;;;1.00;1.00;;;;;;;;4984656;27;45347;-73
2022/08/29 00:48:19;;;;;;;;;2.00;2.00;;;;;;;;4980905;27;45322;-72
2022/08/29 00:50:51;;;;;;;;;3.67;2.00;;;;;;;;4983782;27;45465;-73
2022/08/29 00:53:18;;;;;;;;;1.00;1.00;;;;;;;;4987774;27;47986;-73
2022/08/29 00:55:45;;;;;;;;;2.00;1.67;;;;;;;;4983790;27;45503;-73
2022/08/29 00:58:13;;;;;;;;;1.67;1.67;;;;;;;;4983176;27;45402;-73
2022/08/29 01:00:40;;;;;;;;;2.33;1.33;;;;;;;;4986078;27;45505;-72
2022/08/29 01:03:05;;;;;;;;;0.67;0.67;;;;;;;;4992848;27;45168;-73
2022/08/29 01:05:31;;;;;;;;;1.00;1.00;;;;;;;;4987037;28;45401;-73
2022/08/29 01:07:57;;;;;;;;;1.67;1.67;;;;;;;;4980789;28;45584;-72
2022/08/29 01:13:08;;;;;;;;;2.00;2.00;;;;;;;;4990723;28;45175;-72
2022/08/29 01:15:33;;;;;;;;;1.00;0.67;;;;;;;;4984857;27;45483;-73
2022/08/29 01:17:59;;;;;;;;;3.00;1.00;;;;;;;;4989729;27;45316;-73
2022/08/29 01:20:24;;;;;;;;;1.00;1.00;;;;;;;;4987920;28;45728;-72
2022/08/29 01:23:08;;;;;;;;;2.00;2.00;;;;;;;;4986990;27;48245;-72
2022/08/29 01:25:36;;;;;;;;;0.67;0.67;;;;;;;;4987345;28;45269;-72
2022/08/29 01:28:01;;;;;;;;;3.00;2.00;;;;;;;;4980380;28;45414;-73
2022/08/29 01:30:27;;;;;;;;;2.67;1.67;;;;;;;;4989477;27;45538;-73
2022/08/29 01:32:52;;;;;;;;;3.33;1.67;;;;;;;;4987625;28;45322;-72
2022/08/29 01:35:17;;;;;;;;;0.00;0.00;;;;;;;;5012033;27;45457;-72
2022/08/29 01:37:43;;;;;;;;;2.00;2.00;;;;;;;;4980229;27;45549;-73
2022/08/29 01:40:08;;;;;;;;;2.00;2.00;;;;;;;;4982330;28;45411;-72
2022/08/29 01:42:35;;;;;;;;;1.00;1.00;;;;;;;;4984604;27;46418;-72
2022/08/29 01:45:00;;;;;;;;;1.33;1.33;;;;;;;;4993238;27;45508;-73
2022/08/29 01:47:28;;;;;;;;;1.33;1.33;;;;;;;;4986567;27;45264;-73
2022/08/29 01:49:53;;;;;;;;;3.33;2.00;;;;;;;;4988176;27;45382;-72
2022/08/29 01:52:19;;;;;;;;;0.33;0.33;;;;;;;;4993526;27;46098;-73
2022/08/29 01:54:44;;;;;;;;;1.67;1.67;;;;;;;;4995783;27;45274;-72
2022/08/29 01:57:10;;;;;;;;;1.00;0.67;;;;;;;;4981912;27;45383;-73
2022/08/29 01:59:36;;;;;;;;;2.00;2.00;;;;;;;;4988497;27;45501;-73
2022/08/29 02:02:03;;;;;;;;;3.67;2.33;;;;;;;;4995019;27;46942;-73
2022/08/29 02:04:28;;;;;;;;;1.00;1.00;;;;;;;;4981938;27;45457;-73
2022/08/29 02:06:54;;;;;;;;;1.00;1.00;;;;;;;;4982051;27;45515;-73
2022/08/29 02:09:20;;;;;;;;;3.67;0.67;;;;;;;;4994697;27;45205;-73
2022/08/29 02:11:45;;;;;;;;;1.67;0.67;;;;;;;;4982426;27;46177;-73
2022/08/29 02:14:10;;;;;;;;;1.67;1.67;;;;;;;;4986031;27;45247;-73
2022/08/29 02:16:36;;;;;;;;;1.00;1.00;;;;;;;;4983621;27;45380;-73
2022/08/29 02:19:01;;;;;;;;;1.33;1.33;;;;;;;;4990901;28;45857;-72
2022/08/29 02:21:27;;;;;;;;;1.67;1.67;;;;;;;;4983756;27;46236;-73
2022/08/29 02:23:53;;;;;;;;;4.00;1.00;;;;;;;;4990935;27;45342;-73
2022/08/29 02:26:19;;;;;;;;;1.00;0.33;;;;;;;;4989582;27;45468;-73
2022/08/29 02:28:44;;;;;;;;;2.00;1.00;;;;;;;;4992534;28;45325;-72
2022/08/29 02:31:10;;;;;;;;;1.00;1.00;;;;;;;;4989099;27;45426;-73
2022/08/29 02:33:36;;;;;;;;;1.33;1.33;;;;;;;;4984063;27;45246;-73
2022/08/29 02:36:02;;;;;;;;;1.67;1.00;;;;;;;;5009904;27;45839;-72
2022/08/29 02:38:28;;;;;;;;;0.67;0.67;;;;;;;;4981287;28;45341;-73
2022/08/29 02:40:54;;;;;;;;;1.67;1.67;;;;;;;;4987968;27;47933;-73
2022/08/29 02:43:20;;;;;;;;;0.67;0.67;;;;;;;;4992113;27;45499;-73
2022/08/29 02:45:46;;;;;;;;;2.00;1.00;;;;;;;;4988608;27;45410;-74
2022/08/29 02:48:11;;;;;;;;;3.67;1.67;;;;;;;;4994198;28;45319;-73
2022/08/29 02:50:44;;;;;;;;;2.33;1.33;;;;;;;;4988370;27;45369;-73
2022/08/29 02:53:10;;;;;;;;;1.67;1.00;;;;;;;;4988161;27;45233;-73
2022/08/29 02:55:36;;;;;;;;;1.00;1.00;;;;;;;;4991709;27;45359;-73
2022/08/29 02:58:01;;;;;;;;;0.67;0.67;;;;;;;;4989127;27;45473;-73
2022/08/29 03:00:27;;;;;;;;;3.33;0.67;;;;;;;;4993206;27;45428;-72
2022/08/29 03:02:54;;;;;;;;;1.00;1.00;;;;;;;;4979266;27;45363;-73
2022/08/29 03:05:20;;;;;;;;;2.33;1.67;;;;;;;;4988824;27;45264;-72
2022/08/29 03:07:46;;;;;;;;;2.33;0.67;;;;;;;;4979096;27;45443;-73
2022/08/29 03:10:11;;;;;;;;;1.67;0.67;;;;;;;;4980429;27;48145;-72
2022/08/29 03:12:37;;;;;;;;;2.67;0.67;;;;;;;;4984937;27;45374;-72
2022/08/29 03:15:03;;;;;;;;;1.67;1.33;;;;;;;;4990172;28;45667;-72
2022/08/29 03:17:29;;;;;;;;;1.00;1.00;;;;;;;;4984000;27;45977;-73
2022/08/29 03:19:54;;;;;;;;;2.67;1.00;;;;;;;;4985322;28;46786;-72
2022/08/29 03:22:19;;;;;;;;;0.67;0.67;;;;;;;;4985538;28;45249;-73
2022/08/29 03:24:44;;;;;;;;;1.33;1.33;;;;;;;;4988248;28;45347;-73
2022/08/29 03:27:09;;;;;;;;;3.67;2.00;;;;;;;;4991871;27;45568;-72
2022/08/29 03:29:36;;;;;;;;;2.33;1.00;;;;;;;;4990607;28;45272;-72
2022/08/29 03:32:01;;;;;;;;;1.33;1.00;;;;;;;;4989033;27;45492;-72
2022/08/29 03:34:27;;;;;;;;;2.00;1.67;;;;;;;;5008376;27;45219;-72
2022/08/29 03:36:52;;;;;;;;;1.67;1.67;;;;;;;;4984496;27;45283;-72
2022/08/29 03:39:17;;;;;;;;;1.67;1.67;;;;;;;;4991582;27;45278;-72
2022/08/29 03:41:43;;;;;;;;;0.67;0.67;;;;;;;;4981299;28;45409;-72
2022/08/29 03:44:08;;;;;;;;;2.00;2.00;;;;;;;;4981982;27;45883;-72
2022/08/29 03:46:35;;;;;;;;;2.00;1.67;;;;;;;;4983686;27;45647;-72
2022/08/29 03:49:00;;;;;;;;;1.00;1.00;;;;;;;;4984334;28;45504;-72
2022/08/29 03:51:25;;;;;;;;;2.00;1.67;;;;;;;;4986230;27;45330;-73
2022/08/29 03:53:50;;;;;;;;;2.00;2.00;;;;;;;;4985680;28;45450;-72
2022/08/29 03:56:16;;;;;;;;;3.67;0.67;;;;;;;;4984009;27;45358;-72
2022/08/29 03:58:41;;;;;;;;;3.00;1.00;;;;;;;;4986585;27;46919;-72
2022/08/29 04:01:06;;;;;;;;;2.33;2.00;;;;;;;;4992126;27;45524;-72
2022/08/29 04:03:32;;;;;;;;;1.67;1.33;;;;;;;;4984287;27;45241;-72
2022/08/29 04:05:57;;;;;;;;;3.00;1.67;;;;;;;;4978627;28;45338;-72
2022/08/29 04:08:22;;;;;;;;;4.00;2.67;;;;;;;;4980693;28;45490;-73
2022/08/29 04:10:47;;;;;;;;;1.00;0.67;;;;;;;;4978830;27;45313;-72
2022/08/29 04:13:13;;;;;;;;;2.00;2.00;;;;;;;;4982519;27;45442;-72
2022/08/29 04:15:40;;;;;;;;;1.00;1.00;;;;;;;;4982509;27;45229;-73
2022/08/29 04:18:06;;;;;;;;;1.67;1.00;;;;;;;;4984111;27;45440;-72
2022/08/29 04:20:32;;;;;;;;;3.00;3.00;;;;;;;;4986169;27;45335;-72
2022/08/29 04:22:58;;;;;;;;;3.67;1.33;;;;;;;;4987424;28;45310;-72
2022/08/29 04:25:24;;;;;;;;;2.33;1.67;;;;;;;;4989420;27;45276;-72
2022/08/29 04:27:50;;;;;;;;;2.00;1.00;;;;;;;;4986113;27;45708;-72
2022/08/29 04:30:17;;;;;;;;;2.33;1.00;;;;;;;;4990172;27;45352;-72
2022/08/29 04:32:42;;;;;;;;;0.67;0.67;;;;;;;;4993286;27;45471;-72
2022/08/29 04:35:08;;;;;;;;;2.00;2.00;;;;;;;;5002591;27;46127;-72
2022/08/29 04:37:33;;;;;;;;;2.00;2.00;;;;;;;;4984418;28;48272;-72
2022/08/29 04:39:59;;;;;;;;;2.33;2.33;;;;;;;;4994710;27;45504;-72
2022/08/29 04:42:24;;;;;;;;;2.67;2.00;;;;;;;;4992041;28;45294;-72
2022/08/29 04:44:50;;;;;;;;;1.67;1.67;;;;;;;;4995689;28;45220;-72
2022/08/29 04:47:15;;;;;;;;;1.67;1.67;;;;;;;;4991535;28;45421;-72
2022/08/29 04:49:41;;;;;;;;;2.33;1.67;;;;;;;;4996594;28;45223;-73
2022/08/29 04:52:06;;;;;;;;;1.33;1.33;;;;;;;;4994044;28;45413;-72
2022/08/29 04:54:31;;;;;;;;;3.00;1.67;;;;;;;;4996345;27;45453;-72
2022/08/29 04:56:59;;;;;;;;;4.00;2.00;;;;;;;;4978968;28;45575;-73
2022/08/29 04:59:24;;;;;;;;;2.33;2.33;;;;;;;;4984996;28;45368;-73
2022/08/29 05:01:49;;;;;;;;;1.67;1.67;;;;;;;;4983181;27;45411;-73
2022/08/29 05:04:15;;;;;;;;;2.00;2.00;;;;;;;;4985432;27;45764;-72
2022/08/29 05:06:40;;;;;;;;;2.00;2.00;;;;;;;;4986266;28;46197;-73
2022/08/29 05:09:05;;;;;;;;;2.00;2.00;;;;;;;;4986617;28;46040;-74
2022/08/29 05:11:31;;;;;;;;;3.67;3.00;;;;;;;;4981084;27;45485;-73
2022/08/29 05:13:57;;;;;;;;;4.67;2.67;;;;;;;;4987463;27;45396;-73
2022/08/29 05:16:22;;;;;;;;;2.67;2.67;;;;;;;;4987305;27;46069;-73
2022/08/29 05:18:47;;;;;;;;;4.33;2.67;;;;;;;;4993752;28;45217;-71
2022/08/29 05:21:21;;;;;;;;;5.00;2.00;;;;;;;;4984937;27;45327;-71
2022/08/29 05:23:46;;;;;;;;;5.00;2.67;;;;;;;;4988045;28;46156;-73
2022/08/29 05:26:12;;;;;;;;;2.67;2.67;;;;;;;;4988157;28;46051;-73
2022/08/29 05:28:38;;;;;;;;;5.00;3.00;;;;;;;;4990616;28;45411;-71
2022/08/29 05:31:03;;;;;;;;;5.00;3.00;;;;;;;;4982871;27;45646;-71
2022/08/29 05:33:28;;;;;;;;;4.67;2.33;;;;;;;;4993105;27;47244;-71
2022/08/29 05:35:53;;;;;;;;;6.67;3.67;;;;;;;;5018914;27;47465;-71
2022/08/29 05:38:19;;;;;;;;;4.33;1.67;;;;;;;;4990511;28;45443;-71
2022/08/29 05:40:44;;;;;;;;;3.00;3.00;;;;;;;;4983804;28;45686;-70
2022/08/29 05:43:10;;;;;;;;;5.00;2.67;;;;;;;;4993332;28;45982;-70
2022/08/29 05:45:36;;;;;;;;;5.00;3.00;;;;;;;;4987799;28;45303;-71
2022/08/29 05:48:06;;;;;;;;;3.00;3.00;;;;;;;;4985460;28;45358;-72
2022/08/29 05:50:31;;;;;;;;;4.00;1.67;;;;;;;;4991856;27;45350;-72
2022/08/29 05:52:56;;;;;;;;;2.33;2.33;;;;;;;;4984197;27;45322;-72
2022/08/29 05:55:22;;;;;;;;;2.50;1.50;;;;;;;;4984223;28;46218;-72
2022/08/29 05:57:50;;;;;;;;;2.00;2.00;;;;;;;;4976612;28;45461;-73
2022/08/29 06:00:16;;;;;;;;;2.67;2.67;;;;;;;;4985468;28;45540;-72
2022/08/29 06:02:41;;;;;;;;;5.67;2.67;;;;;;;;4977896;28;45287;-72
2022/08/29 06:05:06;;;;;;;;;1.67;1.67;;;;;;;;4986154;27;46206;-72
2022/08/29 06:07:32;;;;;;;;;3.00;0.00;;;;;;;;4981516;28;45299;-72
2022/08/29 06:09:58;;;;;;;;;3.33;2.00;;;;;;;;4987621;28;45337;-73
2022/08/29 06:12:23;;;;;;;;;5.67;2.67;;;;;;;;4983566;28;45526;-72
2022/08/29 06:14:48;;;;;;;;;2.33;2.33;;;;;;;;4988781;27;45347;-73
2022/08/29 06:17:14;;;;;;;;;1.67;1.67;;;;;;;;4984760;27;45474;-72
2022/08/29 06:19:39;;;;;;;;;2.67;2.00;;;;;;;;4989859;28;45260;-72
2022/08/29 06:22:06;;;;;;;;;2.67;2.67;;;;;;;;4983180;27;45220;-72
2022/08/29 06:24:31;;;;;;;;;2.00;2.00;;;;;;;;4983646;27;46123;-72
2022/08/29 06:26:57;;;;;;;;;3.00;2.00;;;;;;;;4990436;27;45373;-72
2022/08/29 06:29:22;;;;;;;;;2.67;1.67;;;;;;;;4989117;27;45386;-72
2022/08/29 06:31:48;;;;;;;;;2.67;2.67;;;;;;;;4990684;27;45541;-72
2022/08/29 06:34:13;;;;;;;;;3.00;3.00;;;;;;;;5018600;27;45354;-72
2022/08/29 06:36:38;;;;;;;;;3.67;3.67;;;;;;;;4981696;27;45449;-72
2022/08/29 06:39:05;;;;;;;;;6.00;3.00;;;;;;;;4983204;27;45437;-72
2022/08/29 06:41:31;;;;;;;;;4.00;3.00;;;;;;;;4983671;27;45490;-72
2022/08/29 06:43:56;;;;;;;;;2.67;2.33;;;;;;;;4981564;27;45598;-72
2022/08/29 06:46:23;;;;;;;;;2.67;2.67;;;;;;;;4986749;27;45413;-71
2022/08/29 06:48:48;;;;;;;;;3.00;2.00;;;;;;;;4984323;27;45318;-72
2022/08/29 06:51:14;;;;;;;;;3.67;3.67;;;;;;;;4991739;27;45579;-72
2022/08/29 06:53:39;;;;;;;;;1.67;1.67;;;;;;;;4985541;27;45370;-72
2022/08/29 06:56:05;;;;;;;;;6.00;3.00;;;;;;;;4980423;28;45637;-72
2022/08/29 06:58:30;;;;;;;;;4.00;2.00;;;;;;;;4979108;28;45273;-72
2022/08/29 07:00:55;;;;;;;;;2.00;2.00;;;;;;;;4988315;28;45287;-73
2022/08/29 07:03:21;;;;;;;;;4.67;2.00;;;;;;;;4984484;27;46439;-72
2022/08/29 07:05:50;;;;;;;;;2.67;2.67;;;;;;;;4988213;27;45909;-73
2022/08/29 07:08:15;;;;;;;;;4.00;2.67;;;;;;;;4990771;27;45405;-73
2022/08/29 07:10:43;;;;;;;;;2.00;2.00;;;;;;;;4980567;27;45532;-72
2022/08/29 07:13:08;;;;;;;;;2.33;2.00;;;;;;;;4996397;27;45655;-72
2022/08/29 07:15:33;;;;;;;;;4.00;1.67;;;;;;;;4992160;28;45351;-73
2022/08/29 07:17:59;;;;;;;;;2.67;2.67;;;;;;;;4997693;28;45368;-73
2022/08/29 07:20:24;;;;;;;;;2.00;2.00;;;;;;;;4981019;28;45403;-73
2022/08/29 07:22:50;;;;;;;;;2.67;1.33;;;;;;;;4979563;28;46172;-73
2022/08/29 07:25:15;;;;;;;;;2.33;2.33;;;;;;;;4989621;28;45433;-73
2022/08/29 07:27:40;;;;;;;;;2.67;2.67;;;;;;;;4986836;27;45302;-73
2022/08/29 07:30:06;;;;;;;;;4.00;2.67;;;;;;;;4992001;27;45374;-72
2022/08/29 07:32:31;;;;;;;;;2.00;2.00;;;;;;;;4979461;27;46034;-73
2022/08/29 07:34:56;;;;;;;;;3.33;3.00;;;;;;;;5009143;27;46238;-72
2022/08/29 07:37:22;;;;;;;;;3.00;3.00;;;;;;;;4981646;27;45446;-72
2022/08/29 07:39:47;;;;;;;;;2.67;1.67;;;;;;;;4991387;28;45401;-72
2022/08/29 07:42:13;;;;;;;;;4.67;2.67;;;;;;;;4980539;28;46243;-72
2022/08/29 07:44:38;;;;;;;;;4.00;2.67;;;;;;;;4979997;27;45346;-72
2022/08/29 07:47:03;;;;;;;;;4.33;2.67;;;;;;;;4982925;27;45429;-72
2022/08/29 07:49:31;;;;;;;;;1.67;1.67;;;;;;;;4986593;27;45651;-72
2022/08/29 07:51:56;;;;;;;;;3.33;2.00;;;;;;;;4979962;28;45145;-72
2022/08/29 07:54:22;;;;;;;;;3.00;3.00;;;;;;;;4984209;28;45287;-72
2022/08/29 07:56:48;;;;;;;;;4.33;2.67;;;;;;;;4983133;28;45280;-72
2022/08/29 07:59:14;;;;;;;;;1.67;1.67;;;;;;;;4983920;28;45331;-72
2022/08/29 08:01:39;;;;;;;;;4.00;3.00;;;;;;;;4980858;28;45557;-72
2022/08/29 08:04:05;;;;;;;;;3.67;3.00;;;;;;;;4986086;27;45456;-72
2022/08/29 08:06:30;;;;;;;;;3.00;3.00;;;;;;;;4984177;27;45435;-72
2022/08/29 08:08:55;;;;;;;;;4.00;3.00;;;;;;;;4985127;27;45461;-72
2022/08/29 08:11:21;;;;;;;;;4.00;2.33;;;;;;;;4980020;28;46559;-72
2022/08/29 08:13:47;;;;;;;;;2.67;1.67;;;;;;;;4987479;28;45482;-72
2022/08/29 08:16:17;;;;;;;;;2.33;2.33;;;;;;;;4981667;28;45509;-72
2022/08/29 08:18:43;;;;;;;;;3.00;3.00;;;;;;;;4983110;28;46250;-72
2022/08/29 08:21:09;;;;;;;;;2.67;2.00;;;;;;;;4983493;27;46011;-73
2022/08/29 08:23:35;;;;;;;;;7.00;2.33;;;;;;;;4991285;27;45292;-72
2022/08/29 08:26:00;;;;;;;;;4.67;3.33;;;;;;;;4988932;27;45379;-72
2022/08/29 08:28:27;;;;;;;;;4.33;3.00;;;;;;;;4991754;27;45297;-72
2022/08/29 08:30:53;;;;;;;;;1.67;1.67;;;;;;;;4986784;27;45343;-72
2022/08/29 08:33:18;;;;;;;;;2.33;2.33;;;;;;;;4983680;28;45323;-72
2022/08/29 08:35:44;;;;;;;;;4.33;1.67;;;;;;;;5005833;27;45409;-72
2022/08/29 08:38:09;;;;;;;;;4.00;3.00;;;;;;;;4992122;27;45299;-72
2022/08/29 08:40:38;;;;;;;;;4.00;4.00;;;;;;;;4990671;27;47163;-72
2022/08/29 08:43:07;;;;;;;;;5.75;2.00;;;;;;;;4995383;27;45361;-73
2022/08/29 08:45:37;;;;;;;;;1.75;1.75;;;;;;;;4989338;27;45449;-72
2022/08/29 08:48:06;;;;;;;;;3.00;2.00;;;;;;;;4986879;27;46411;-73
2022/08/29 08:50:39;;;;;;;;;2.50;2.00;;;;;;;;4988169;27;45453;-73
2022/08/29 08:53:10;;;;;;;;;3.00;3.00;;;;;;;;4979844;28;45245;-73
2022/08/29 08:55:41;;;;;;;;;2.50;2.50;;;;;;;;4981822;27;45461;-73
2022/08/29 08:58:06;;;;;;;;;2.50;2.50;;;;;;;;4981370;27;45320;-72
2022/08/29 09:00:39;;;;;;;;;3.75;2.50;;;;;;;;4987466;27;46373;-73
2022/08/29 09:03:24;;;;;;;;;1.75;1.75;;;;;;;;4977513;27;45756;-72
2022/08/29 09:05:52;;;;;;;;;2.75;2.75;;;;;;;;4973092;28;45540;-73
2022/08/29 09:08:25;;;;;;;;;4.75;3.00;;;;;;;;4980564;27;45423;-73
2022/08/29 09:10:53;;;;;;;;;3.25;3.00;;;;;;;;4987268;28;46455;-73
2022/08/29 09:13:26;;;;;;;;;3.00;2.00;;;;;;;;4989703;27;45445;-73
2022/08/29 09:15:53;;;;;;;;;3.75;3.25;;;;;;;;4987678;27;45524;-73
2022/08/29 09:18:23;;;;;;;;;5.25;3.00;;;;;;;;4989982;28;45501;-75
2022/08/29 09:20:48;;;;;;;;;1.25;1.25;;;;;;;;4990837;27;45290;-75
2022/08/29 09:23:17;;;;;;;;;3.00;3.00;;;;;;;;4993617;28;45298;-75
2022/08/29 09:25:42;;;;;;;;;5.00;3.00;;;;;;;;4991047;28;45499;-74
2022/08/29 09:28:08;;;;;;;;;2.75;1.25;;;;;;;;4994557;28;46023;-75
2022/08/29 09:30:35;;;;;;;;;3.00;3.00;;;;;;;;4988052;28;45487;-74
2022/08/29 09:33:03;;;;;;;;;3.20;3.20;;;;;;;;4977994;27;45290;-74
2022/08/29 09:35:32;;;;;;;;;3.00;2.75;;;;;;;;5011038;27;45476;-74
2022/08/29 09:37:59;;;;;;;;;5.75;2.75;;;;;;;;4982264;27;45298;-74
2022/08/29 09:40:39;;;;;;;;;2.25;2.25;;;;;;;;4990502;28;45362;-74
2022/08/29 09:43:06;;;;;;;;;3.00;2.80;;;;;;;;4986719;28;45510;-74
2022/08/29 09:45:32;;;;;;;;;6.20;2.80;;;;;;;;4985939;27;45453;-75
2022/08/29 09:48:14;;;;;;;;;3.00;3.00;;;;;;;;4986678;27;45365;-75
2022/08/29 09:50:40;;;;;;;;;2.40;2.40;;;;;;;;4986502;28;45482;-74
2022/08/29 09:53:05;;;;;;;;;4.00;2.50;;;;;;;;4976716;28;45314;-74
2022/08/29 09:55:33;;;;;;;;;2.25;2.25;;;;;;;;4988750;28;45484;-74
2022/08/29 09:58:07;;;;;;;;;2.20;2.20;;;;;;;;4978879;27;45404;-74
2022/08/29 10:00:34;;;;;;;;;4.00;4.00;;;;;;;;4990975;27;46260;-75
2022/08/29 10:03:01;;;;;;;;;3.00;2.00;;;;;;;;4983845;27;45815;-74
2022/08/29 10:05:28;;;;;;;;;3.00;2.80;;;;;;;;4986674;27;45457;-74
2022/08/29 10:07:54;;;;;;;;;5.80;3.40;;;;;;;;4992855;28;45475;-75
2022/08/29 10:10:20;;;;;;;;;3.25;3.25;;;;;;;;4996204;27;46739;-75
2022/08/29 10:13:04;;;;;;;;;7.60;5.20;;;;;;;;4991255;27;45329;-75
2022/08/29 10:15:48;;;;;;;;;3.80;3.80;;;;;;;;4995296;27;45287;-75
2022/08/29 10:18:26;;;;;;;;;3.20;3.20;;;;;;;;4996838;28;46193;-74
2022/08/29 10:20:51;;;;;;;;;1.80;1.80;;;;;;;;4994175;27;47217;-75
2022/08/29 10:23:34;;;;;;;;;3.00;3.00;;;;;;;;4994672;28;45429;-74
2022/08/29 10:26:03;;;;;;;;;3.20;3.20;;;;;;;;4997518;27;45471;-74
2022/08/29 10:28:38;;;;;;;;;4.00;4.00;;;;;;;;4991669;27;45309;-74
2022/08/29 10:31:03;;;;;;;;;4.80;4.80;;;;;;;;4991403;28;46128;-74
2022/08/29 10:33:34;;;;;;;;;2.50;2.50;;;;;;;;4983263;28;45410;-74
2022/08/29 10:36:05;;;;;;;;;3.80;3.20;;;;;;;;5016228;27;45494;-73
2022/08/29 10:38:44;;;;;;;;;4.60;4.20;;;;;;;;4983630;27;45820;-74
2022/08/29 10:41:23;;;;;;;;;3.80;3.80;;;;;;;;4989584;27;45524;-74
2022/08/29 10:44:07;;;;;;;;;4.60;4.20;;;;;;;;4986929;27;45422;-74
2022/08/29 10:46:32;;;;;;;;;4.60;4.60;;;;;;;;4986332;27;45504;-73
2022/08/29 10:49:04;;;;;;;;;3.50;2.50;;;;;;;;4988354;28;45274;-73
2022/08/29 10:51:34;;;;;;;;;4.40;4.20;;;;;;;;4990799;27;45425;-74
2022/08/29 10:54:08;;;;;;;;;3.00;3.00;;;;;;;;4996857;27;45248;-74
2022/08/29 10:56:39;;;;;;;;;3.20;3.20;;;;;;;;4996020;27;45533;-73
2022/08/29 10:59:04;;;;;;;;;5.20;4.20;;;;;;;;4986063;27;45473;-74
2022/08/29 11:01:36;;;;;;;;;2.50;2.50;;;;;;;;4986190;28;45716;-73
2022/08/29 11:04:16;;;;;;;;;6.20;4.00;;;;;;;;4993516;28;45341;-74
2022/08/29 11:06:54;;;;;;;;;4.60;4.00;;;;;;;;4981665;28;45386;-74
2022/08/29 11:09:39;;;;;;;;;6.00;4.40;;;;;;;;4992925;27;45350;-75
2022/08/29 11:12:14;;;;;;;;;2.60;2.40;;;;;;;;4986501;27;45523;-72
2022/08/29 11:14:42;;;;;;;;;4.40;4.40;;;;;;;;4986197;28;45242;-73
2022/08/29 11:17:09;;;;;;;;;4.20;4.20;;;;;;;;4988525;27;45294;-73
2022/08/29 11:19:41;;;;;;;;;1.60;0.40;;;;;;;;4987353;28;46011;-74
2022/08/29 11:22:22;;;;;;;;;3.80;3.80;;;;;;;;4989448;28;46235;-74
2022/08/29 11:25:00;;;;;;;;;3.60;2.20;;;;;;;;4994637;27;45369;-74
2022/08/29 11:27:31;;;;;;;;;3.80;2.80;;;;;;;;4988271;27;45327;-74
2022/08/29 11:30:01;;;;;;;;;5.40;4.20;;;;;;;;4987714;27;45423;-74
2022/08/29 11:32:43;;;;;;;;;5.00;3.40;;;;;;;;4983235;27;45367;-73
2022/08/29 11:35:13;;;;;;;;;5.40;4.00;;;;;;;;5006272;27;45489;-72
2022/08/29 11:37:58;;;;;;;;;4.20;3.40;;;;;;;;4984024;27;45484;-72
2022/08/29 11:40:49;;;;;;;;;4.20;3.00;;;;;;;;4986802;27;45471;-73
2022/08/29 11:43:17;;;;;;;;;6.40;4.80;;;;;;;;4984592;28;45525;-72
2022/08/29 11:45:43;;;;;;;;;4.40;3.20;;;;;;;;4987075;27;45415;-74
2022/08/29 11:48:19;;;;;;;;;3.00;3.00;;;;;;;;4986674;27;45540;-74
2022/08/29 11:50:45;;;;;;;;;3.20;3.00;;;;;;;;4986893;28;45336;-75
2022/08/29 11:53:32;;;;;;;;;4.00;4.00;;;;;;;;4978324;28;45806;-73
2022/08/29 11:56:13;;;;;;;;;5.00;2.20;;;;;;;;4989151;28;45474;-74
2022/08/29 11:58:44;;;;;;;;;4.40;3.20;;;;;;;;4994746;27;45597;-74
2022/08/29 12:01:11;;;;;;;;;2.80;2.80;;;;;;;;4988467;28;45377;-73
2022/08/29 12:03:36;;;;;;;;;3.00;2.60;;;;;;;;4981599;28;47661;-74
2022/08/29 12:06:01;;;;;;;;;4.25;3.25;;;;;;;;4983949;27;45229;-74
2022/08/29 12:08:34;;;;;;;;;5.50;4.25;;;;;;;;4983726;28;45178;-74
2022/08/29 12:11:00;;;;;;;;;4.40;3.20;;;;;;;;4988769;27;46094;-75
2022/08/29 12:13:57;;;;;;;;;5.25;4.00;;;;;;;;4990047;27;45193;-74
2022/08/29 12:16:24;;;;;;;;;4.80;3.00;;;;;;;;4985378;27;45415;-74
2022/08/29 12:18:51;;;;;;;;;4.40;4.40;;;;;;;;4978833;27;45245;-74
2022/08/29 12:21:34;;;;;;;;;3.20;3.20;;;;;;;;4987328;27;45477;-75
2022/08/29 12:24:00;;;;;;;;;3.20;3.20;;;;;;;;4991110;28;45377;-75
2022/08/29 12:26:42;;;;;;;;;7.00;4.00;;;;;;;;4987752;28;45308;-74
2022/08/29 12:29:16;;;;;;;;;4.60;4.60;;;;;;;;4993783;27;45263;-74
2022/08/29 12:32:09;;;;;;;;;2.80;2.80;;;;;;;;4988454;28;45683;-75
2022/08/29 12:34:53;;;;;;;;;5.60;5.00;;;;;;;;5007061;27;46302;-75
2022/08/29 12:37:35;;;;;;;;;5.60;4.60;;;;;;;;4980286;28;45434;-74
2022/08/29 12:40:01;;;;;;;;;4.60;4.00;;;;;;;;4979153;28;45417;-75
2022/08/29 12:42:32;;;;;;;;;5.25;4.00;;;;;;;;4988039;27;45345;-75
2022/08/29 12:45:00;;;;;;;;;4.40;4.00;;;;;;;;4985486;27;45460;-74
2022/08/29 12:47:27;;;;;;;;;3.80;3.00;;;;;;;;4985637;27;45379;-74
2022/08/29 12:49:54;;;;;;;;;3.60;3.60;;;;;;;;4990152;27;45495;-75
2022/08/29 12:52:30;;;;;;;;;4.80;4.80;;;;;;;;4982682;27;45279;-74
2022/08/29 12:54:57;;;;;;;;;5.40;3.80;;;;;;;;4980784;28;46173;-75
2022/08/29 12:57:28;;;;;;;;;3.80;3.80;;;;;;;;4983478;27;45344;-75
2022/08/29 12:59:55;;;;;;;;;6.60;6.60;;;;;;;;4982516;27;45494;-75
2022/08/29 13:02:23;;;;;;;;;5.40;4.00;;;;;;;;4979631;27;45225;-74
2022/08/29 13:04:48;;;;;;;;;4.00;3.40;;;;;;;;4984516;27;46665;-75
2022/08/29 13:07:17;;;;;;;;;3.75;3.75;;;;;;;;4986810;27;45358;-75
2022/08/29 13:09:51;;;;;;;;;4.20;4.20;;;;;;;;4985173;27;45340;-74
2022/08/29 13:12:16;;;;;;;;;6.00;5.40;;;;;;;;4984152;28;45395;-74
2022/08/29 13:15:01;;;;;;;;;4.00;4.00;;;;;;;;4989318;27;45275;-74
2022/08/29 13:17:26;;;;;;;;;5.60;5.60;;;;;;;;5003330;27;45410;-74
2022/08/29 13:20:10;;;;;;;;;5.25;4.50;;;;;;;;4981083;27;45288;-75
2022/08/29 13:22:35;;;;;;;;;8.80;6.60;;;;;;;;4987179;27;47002;-74
2022/08/29 13:25:02;;;;;;;;;6.00;6.00;;;;;;;;4994419;27;45428;-75
2022/08/29 13:27:27;;;;;;;;;8.20;6.20;;;;;;;;4980873;27;45469;-75
2022/08/29 13:29:58;;;;;;;;;7.50;7.50;;;;;;;;4988216;28;45328;-73
2022/08/29 13:32:25;;;;;;;;;7.80;6.20;;;;;;;;4977418;28;45477;-74
2022/08/29 13:35:01;;;;;;;;;8.00;5.40;;;;;;;;5008910;27;46225;-74
2022/08/29 13:37:31;;;;;;;;;6.20;5.40;;;;;;;;4988046;28;45370;-74
2022/08/29 13:40:16;;;;;;;;;6.40;6.40;;;;;;;;4991721;28;45372;-75
2022/08/29 13:42:43;;;;;;;;;6.00;4.40;;;;;;;;4990483;28;46270;-73
2022/08/29 13:45:09;;;;;;;;;5.20;5.20;;;;;;;;4984696;28;47000;-76
2022/08/29 13:47:40;;;;;;;;;7.25;6.25;;;;;;;;4978565;27;45447;-75
2022/08/29 13:50:07;;;;;;;;;5.80;5.80;;;;;;;;5010514;27;45371;-76
2022/08/29 13:52:32;;;;;;;;;5.60;4.60;;;;;;;;4977695;28;45537;-77
2022/08/29 13:54:58;;;;;;;;;6.50;6.50;;;;;;;;4986355;27;47157;-76
2022/08/29 13:57:25;;;;;;;;;8.00;8.00;;;;;;;;4981316;27;45415;-77
2022/08/29 13:59:50;;;;;;;;;10.20;6.60;;;;;;;;4987346;28;45307;-76
2022/08/29 14:02:15;;;;;;;;;5.50;5.50;;;;;;;;4979027;28;45403;-77
2022/08/29 14:04:41;;;;;;;;;7.75;6.25;;;;;;;;4988569;27;47713;-77
2022/08/29 14:07:07;;;;;;;;;5.00;2.60;;;;;;;;4983614;28;45537;-76
2022/08/29 14:09:34;;;;;;;;;6.20;5.40;;;;;;;;4992758;28;45486;-76
2022/08/29 14:12:00;;;;;;;;;7.80;7.80;;;;;;;;4986991;27;45429;-76
2022/08/29 14:14:25;;;;;;;;;6.00;5.00;;;;;;;;4976418;28;45267;-75
2022/08/29 14:16:52;;;;;;;;;8.75;6.00;;;;;;;;4982456;28;45478;-75
2022/08/29 14:19:20;;;;;;;;;5.80;5.80;;;;;;;;4983329;27;45279;-76
2022/08/29 14:21:45;;;;;;;;;5.40;5.40;;;;;;;;4982559;27;45830;-76
2022/08/29 14:24:11;;;;;;;;;7.75;5.00;;;;;;;;4987954;28;47019;-75
2022/08/29 14:26:37;;;;;;;;;7.00;5.50;;;;;;;;4981820;28;45700;-75
2022/08/29 14:29:03;;;;;;;;;5.20;5.20;;;;;;;;4983924;27;45382;-77
2022/08/29 14:31:28;;;;;;;;;9.50;7.00;;;;;;;;4987113;28;45744;-75
2022/08/29 14:33:53;;;;;;;;;6.75;6.00;;;;;;;;4999573;27;46311;-75
2022/08/29 14:36:19;;;;;;;;;5.50;5.25;;;;;;;;4993664;27;45405;-77
2022/08/29 14:38:44;;;;;;;;;8.25;6.00;;;;;;;;4986708;28;45468;-75
2022/08/29 14:41:09;;;;;;;;;9.00;5.75;;;;;;;;4986499;27;45495;-76
2022/08/29 14:43:34;;;;;;;;;4.75;4.75;;;;;;;;4984918;27;47102;-77
2022/08/29 14:46:00;;;;;;;;;7.75;6.00;;;;;;;;4993570;27;45491;-78
2022/08/29 14:48:26;;;;;;;;;5.25;5.25;;;;;;;;4980374;27;45461;-76
2022/08/29 14:50:51;;;;;;;;;5.80;5.80;;;;;;;;4973153;28;46620;-76